createdAt,value
2023-09-20T00:13:50.174Z,99.90
2023-09-20T00:38:54.588Z,99.90
2023-09-20T01:09:31.039Z,99.90
2023-09-20T02:15:25.188Z,99.90
2023-09-20T03:15:45.309Z,99.90
2023-09-20T03:36:17.748Z,99.90
2023-09-20T04:06:27.636Z,99.90
2023-09-20T04:42:23.854Z,99.90
2023-09-20T05:12:23.287Z,99.90
2023-09-20T05:32:51.765Z,99.90
2023-09-20T05:53:22.570Z,99.90
2023-09-20T06:43:46.488Z,99.90
2023-09-20T07:14:22.132Z,99.90
2023-09-20T07:35:05.180Z,98.90
2023-09-20T07:55:14.534Z,98.20
2023-09-20T08:20:49.413Z,92.40
2023-09-20T08:46:11.663Z,83.40
2023-09-20T09:16:39.721Z,72.80
2023-09-20T09:20:59.692Z,72.00
2023-09-20T09:46:58.685Z,65.70
2023-09-20T10:12:25.440Z,63.90
2023-09-20T10:48:00.416Z,61.40
2023-09-20T10:52:20.812Z,61.80
2023-09-20T11:13:04.129Z,61.50
2023-09-20T11:33:29.971Z,60.70
2023-09-20T11:58:53.929Z,60.80
2023-09-20T12:28:45.217Z,60.10
2023-09-20T12:49:02.650Z,60.20
2023-09-20T13:09:24.087Z,60.00
2023-09-20T13:34:42.646Z,58.70
2023-09-20T13:55:42.050Z,58.40
2023-09-20T14:20:49.098Z,59.20
2023-09-20T14:41:14.038Z,60.20
2023-09-20T15:21:48.364Z,60.40
2023-09-20T15:46:36.012Z,65.40
2023-09-20T16:12:10.806Z,81.70
2023-09-20T16:48:08.429Z,94.50
2023-09-20T17:18:36.426Z,99.90
2023-09-20T17:38:52.703Z,99.90
2023-09-20T17:58:42.164Z,99.90
2023-09-20T18:44:37.543Z,99.90
2023-09-20T19:09:44.562Z,99.90
2023-09-20T19:40:35.586Z,99.90
2023-09-20T20:05:52.245Z,99.90
2023-09-20T20:31:12.157Z,99.90
2023-09-20T20:56:00.824Z,99.90
2023-09-20T21:16:43.514Z,99.90
2023-09-20T21:36:57.329Z,99.90
2023-09-20T22:01:43.891Z,99.90
2023-09-20T22:42:47.098Z,99.90
2023-09-20T23:07:59.387Z,99.90
2023-09-20T23:54:00.526Z,99.90
